createdAt,value
2017-08-29T00:00:29.317Z,78.20
2017-08-29T00:02:55.388Z,78.40
2017-08-29T00:05:21.425Z,78.50
2017-08-29T00:07:47.424Z,78.50
2017-08-29T00:10:13.588Z,78.70
2017-08-29T00:12:39.644Z,78.60
2017-08-29T00:15:05.684Z,78.40
2017-08-29T00:17:31.729Z,78.50
2017-08-29T00:19:57.752Z,78.50
2017-08-29T00:22:23.796Z,78.60
2017-08-29T00:24:50.126Z,78.90
2017-08-29T00:27:16.132Z,78.70
2017-08-29T00:29:42.157Z,78.90
2017-08-29T00:32:08.256Z,78.80
2017-08-29T00:34:34.290Z,79.00
2017-08-29T00:37:00.308Z,78.90
2017-08-29T00:39:26.374Z,78.80
2017-08-29T00:41:52.408Z,78.70
2017-08-29T00:44:18.803Z,78.90
2017-08-29T00:46:44.852Z,79.00
2017-08-29T00:49:10.893Z,79.00
2017-08-29T00:51:36.937Z,79.00
2017-08-29T00:54:02.984Z,78.90
2017-08-29T00:56:29.025Z,78.90
2017-08-29T00:58:55.040Z,79.00
2017-08-29T01:01:21.268Z,78.80
2017-08-29T01:03:47.297Z,79.00
2017-08-29T01:06:13.587Z,79.10
2017-08-29T01:08:39.614Z,78.90
2017-08-29T01:11:05.657Z,78.90
2017-08-29T01:13:31.723Z,79.50
2017-08-29T01:15:57.818Z,78.70
2017-08-29T01:18:23.896Z,78.90
2017-08-29T01:20:49.943Z,79.00
2017-08-29T01:23:16.180Z,79.00
2017-08-29T01:25:42.225Z,79.00
2017-08-29T01:28:08.249Z,79.00
2017-08-29T01:30:34.447Z,79.80
2017-08-29T01:33:00.533Z,78.60
2017-08-29T01:35:26.604Z,78.70
2017-08-29T01:37:52.679Z,77.80
2017-08-29T01:40:18.728Z,77.70
2017-08-29T01:42:44.736Z,78.50
2017-08-29T01:45:10.812Z,77.70
2017-08-29T01:47:36.877Z,78.10
2017-08-29T01:50:02.939Z,78.10
2017-08-29T01:52:29.022Z,79.40
2017-08-29T01:54:55.040Z,78.60
2017-08-29T01:57:21.106Z,79.00
2017-08-29T01:59:47.145Z,78.90
2017-08-29T02:02:13.168Z,78.70
2017-08-29T02:04:39.220Z,78.90
2017-08-29T02:07:05.317Z,78.80
2017-08-29T02:09:31.341Z,79.00
2017-08-29T02:11:57.379Z,78.90
2017-08-29T02:14:23.425Z,78.70
2017-08-29T02:16:49.462Z,78.70
2017-08-29T02:19:15.503Z,78.70
2017-08-29T02:21:41.543Z,78.50
2017-08-29T02:24:07.580Z,78.50
2017-08-29T02:26:33.580Z,78.60
2017-08-29T02:28:59.640Z,78.50
2017-08-29T02:31:25.662Z,78.60
2017-08-29T02:33:51.677Z,78.90
2017-08-29T02:36:17.730Z,79.10
2017-08-29T02:38:43.782Z,79.00
2017-08-29T02:41:09.852Z,79.20
2017-08-29T02:43:35.892Z,78.80
2017-08-29T02:46:01.944Z,79.10
2017-08-29T02:48:28.009Z,79.00
2017-08-29T02:50:54.021Z,78.80
2017-08-29T02:53:20.037Z,78.70
2017-08-29T02:55:46.232Z,78.80
2017-08-29T02:58:12.249Z,78.80
2017-08-29T03:00:38.248Z,78.80
2017-08-29T03:03:04.277Z,78.90
2017-08-29T03:05:30.274Z,78.70
2017-08-29T03:07:56.296Z,79.10
2017-08-29T03:10:22.581Z,78.90
2017-08-29T03:12:48.608Z,78.80
2017-08-29T03:15:14.624Z,78.50
2017-08-29T03:17:40.637Z,78.70
2017-08-29T03:20:06.654Z,78.70
2017-08-29T03:22:33.122Z,78.90
2017-08-29T03:24:59.149Z,79.00
2017-08-29T03:27:25.137Z,78.60
2017-08-29T03:29:51.334Z,79.10
2017-08-29T03:32:17.346Z,79.00
2017-08-29T03:34:43.389Z,79.10
2017-08-29T03:37:09.416Z,79.00
2017-08-29T03:39:35.432Z,79.30
2017-08-29T03:42:01.441Z,79.20
2017-08-29T03:44:27.469Z,79.20
2017-08-29T03:46:53.520Z,78.90
2017-08-29T03:49:19.536Z,79.20
2017-08-29T03:51:45.643Z,79.20
2017-08-29T03:54:11.675Z,79.20
2017-08-29T03:56:37.709Z,79.10
2017-08-29T03:59:03.728Z,79.00
2017-08-29T04:01:29.809Z,79.00
2017-08-29T04:03:55.841Z,79.00
2017-08-29T04:06:21.872Z,79.10
2017-08-29T04:08:47.894Z,78.90
2017-08-29T04:11:13.913Z,79.00
2017-08-29T04:13:39.950Z,78.90
2017-08-29T04:16:05.964Z,78.70
2017-08-29T04:18:31.983Z,78.80
2017-08-29T04:20:58.017Z,78.70
2017-08-29T04:23:24.026Z,78.60
2017-08-29T04:25:50.055Z,78.50
2017-08-29T04:28:16.061Z,78.50
2017-08-29T04:30:42.101Z,78.30
2017-08-29T04:33:08.173Z,78.40
2017-08-29T04:35:34.189Z,78.60
2017-08-29T04:38:00.218Z,78.40
2017-08-29T04:40:26.286Z,78.00
2017-08-29T04:42:52.285Z,77.90
2017-08-29T04:45:18.298Z,77.80
2017-08-29T04:47:44.569Z,77.80
2017-08-29T04:50:10.577Z,77.80
2017-08-29T04:52:36.619Z,77.80
2017-08-29T04:55:02.917Z,77.70
2017-08-29T04:57:28.925Z,77.90
2017-08-29T04:59:54.946Z,78.00
2017-08-29T05:02:20.986Z,78.10
2017-08-29T05:04:47.017Z,78.10
2017-08-29T05:07:13.042Z,78.30
2017-08-29T05:09:39.077Z,78.10
2017-08-29T05:12:05.137Z,77.70
2017-08-29T05:14:31.150Z,77.40
2017-08-29T05:16:57.160Z,77.40
2017-08-29T05:19:23.193Z,77.60
2017-08-29T05:21:49.212Z,77.00
2017-08-29T05:24:15.233Z,76.70
2017-08-29T05:26:41.257Z,76.50
2017-08-29T05:29:07.329Z,75.60
2017-08-29T05:31:33.338Z,75.70
2017-08-29T05:33:59.436Z,76.20
2017-08-29T05:36:25.481Z,76.00
2017-08-29T05:38:51.497Z,75.30
2017-08-29T05:41:17.536Z,75.00
2017-08-29T05:43:43.861Z,75.00
2017-08-29T05:46:09.872Z,74.60
2017-08-29T05:48:35.900Z,74.70
2017-08-29T05:51:01.978Z,74.90
2017-08-29T05:53:27.993Z,75.10
2017-08-29T05:55:54.014Z,75.20
2017-08-29T05:58:20.076Z,75.00
2017-08-29T06:00:46.097Z,74.80
2017-08-29T06:03:12.105Z,74.60
2017-08-29T06:05:38.364Z,74.70
2017-08-29T06:08:04.429Z,74.50
2017-08-29T06:10:30.432Z,74.60
2017-08-29T06:12:56.680Z,74.20
2017-08-29T06:15:22.717Z,73.90
2017-08-29T06:17:48.769Z,74.00
2017-08-29T06:20:14.807Z,73.90
2017-08-29T06:22:40.812Z,73.10
2017-08-29T06:25:07.101Z,73.50
2017-08-29T06:27:33.139Z,73.00
2017-08-29T06:29:59.197Z,72.80
2017-08-29T06:32:25.216Z,72.50
2017-08-29T06:34:51.238Z,73.10
2017-08-29T06:37:17.280Z,72.90
2017-08-29T06:39:43.289Z,72.60
2017-08-29T06:42:09.399Z,72.90
2017-08-29T06:44:35.424Z,72.30
2017-08-29T06:47:01.431Z,72.10
2017-08-29T06:49:27.445Z,72.30
2017-08-29T06:51:53.493Z,72.40
2017-08-29T06:54:19.508Z,72.30
2017-08-29T06:56:45.520Z,72.20
2017-08-29T06:59:11.589Z,72.50
2017-08-29T07:01:37.590Z,73.00
2017-08-29T07:04:03.633Z,72.10
2017-08-29T07:06:29.964Z,72.10
2017-08-29T07:08:55.983Z,72.30
2017-08-29T07:11:22.033Z,72.40
2017-08-29T07:13:48.366Z,72.00
2017-08-29T07:16:14.414Z,71.90
2017-08-29T07:18:40.423Z,71.40
2017-08-29T07:21:06.617Z,71.50
2017-08-29T07:23:32.637Z,71.50
2017-08-29T07:25:58.689Z,71.60
2017-08-29T07:28:24.743Z,71.60
2017-08-29T07:30:50.772Z,71.70
2017-08-29T07:33:16.801Z,71.40
2017-08-29T07:35:43.080Z,71.20
2017-08-29T07:38:09.086Z,70.90
2017-08-29T07:40:35.109Z,71.30
2017-08-29T07:43:01.184Z,71.00
2017-08-29T07:45:27.217Z,70.70
2017-08-29T07:47:53.253Z,70.50
2017-08-29T07:50:19.348Z,70.60
2017-08-29T07:52:45.356Z,70.70
2017-08-29T07:55:11.380Z,70.70
2017-08-29T07:57:37.638Z,70.00
2017-08-29T08:00:03.651Z,69.50
2017-08-29T08:02:29.691Z,70.10
2017-08-29T08:04:55.760Z,69.80
2017-08-29T08:07:21.800Z,69.80
2017-08-29T08:09:48.009Z,68.90
2017-08-29T08:12:14.041Z,69.10
2017-08-29T08:14:40.305Z,69.50
2017-08-29T08:17:06.337Z,69.80
2017-08-29T08:19:32.380Z,69.50
2017-08-29T08:21:58.389Z,69.00
2017-08-29T08:24:24.405Z,68.70
2017-08-29T08:26:50.450Z,68.90
2017-08-29T08:29:16.705Z,68.60
2017-08-29T08:31:42.713Z,68.90
2017-08-29T08:34:09.093Z,68.70
2017-08-29T08:36:35.169Z,68.90
2017-08-29T08:39:01.176Z,68.10
2017-08-29T08:41:27.247Z,68.40
2017-08-29T08:43:53.283Z,68.20
2017-08-29T08:46:19.352Z,68.40
2017-08-29T08:48:45.370Z,68.80
2017-08-29T08:51:11.409Z,68.70
2017-08-29T08:53:37.525Z,67.40
2017-08-29T08:56:03.580Z,68.40
2017-08-29T08:58:29.620Z,67.10
2017-08-29T09:00:55.645Z,67.40
2017-08-29T09:03:21.956Z,67.60
2017-08-29T09:05:48.017Z,67.60
2017-08-29T09:08:14.080Z,67.40
2017-08-29T09:10:40.371Z,67.10
2017-08-29T09:13:06.401Z,66.30
2017-08-29T09:15:32.404Z,66.40
2017-08-29T09:17:58.476Z,67.00
2017-08-29T09:20:24.500Z,67.00
2017-08-29T09:22:50.498Z,66.20
2017-08-29T09:25:16.761Z,67.20
2017-08-29T09:27:42.769Z,66.20
2017-08-29T09:30:08.832Z,65.40
2017-08-29T09:32:34.877Z,65.90
2017-08-29T09:35:00.923Z,65.50
2017-08-29T09:37:26.944Z,65.20
2017-08-29T09:39:53.190Z,64.00
2017-08-29T09:42:19.200Z,64.50
2017-08-29T09:44:45.236Z,60.90
2017-08-29T09:47:11.285Z,58.60
2017-08-29T09:49:37.304Z,55.20
2017-08-29T09:52:03.323Z,53.50
2017-08-29T09:54:29.381Z,54.00
2017-08-29T09:56:55.438Z,52.00
2017-08-29T09:59:21.487Z,51.30
2017-08-29T10:01:47.550Z,50.70
2017-08-29T10:04:13.565Z,48.50
2017-08-29T10:06:39.612Z,47.10
2017-08-29T10:09:05.864Z,47.10
2017-08-29T10:11:31.961Z,46.90
2017-08-29T10:13:58.007Z,48.90
2017-08-29T10:16:24.041Z,48.60
2017-08-29T10:18:50.056Z,47.80
2017-08-29T10:21:16.098Z,47.30
2017-08-29T10:23:42.137Z,46.30
2017-08-29T10:26:08.151Z,46.90
2017-08-29T10:28:34.169Z,48.20
2017-08-29T10:31:00.459Z,48.90
2017-08-29T10:33:26.496Z,47.40
2017-08-29T10:35:52.509Z,45.00
2017-08-29T10:38:18.580Z,45.70
2017-08-29T10:40:44.569Z,44.70
2017-08-29T10:43:10.564Z,45.20
2017-08-29T10:45:36.604Z,44.50
2017-08-29T10:48:02.629Z,45.30
2017-08-29T10:50:28.653Z,46.80
2017-08-29T10:52:54.860Z,47.90
2017-08-29T10:55:20.881Z,47.30
2017-08-29T10:57:46.919Z,48.60
2017-08-29T11:00:12.940Z,49.50
2017-08-29T11:02:38.964Z,49.70
2017-08-29T11:05:04.982Z,50.50
2017-08-29T11:07:31.017Z,51.30
2017-08-29T11:09:57.052Z,51.30
2017-08-29T11:12:23.085Z,51.40
2017-08-29T11:14:49.165Z,51.80
2017-08-29T11:17:15.185Z,52.40
2017-08-29T11:19:41.208Z,54.10
2017-08-29T11:22:08.746Z,53.70
2017-08-29T11:24:35.165Z,54.20
2017-08-29T11:27:01.218Z,53.90
2017-08-29T11:29:27.542Z,54.70
2017-08-29T11:31:53.589Z,55.10
2017-08-29T11:34:19.618Z,56.20
2017-08-29T11:36:45.665Z,56.00
2017-08-29T11:39:11.733Z,56.20
2017-08-29T11:41:37.765Z,56.00
2017-08-29T11:44:11.616Z,55.90
2017-08-29T11:46:37.637Z,56.90
2017-08-29T11:49:03.682Z,55.20
2017-08-29T11:51:29.739Z,55.50
2017-08-29T11:53:55.821Z,55.90
2017-08-29T11:56:21.849Z,55.40
2017-08-29T11:58:47.902Z,55.40
2017-08-29T12:01:13.962Z,56.00
2017-08-29T12:03:39.994Z,54.30
2017-08-29T12:06:06.044Z,53.60
2017-08-29T12:08:32.118Z,54.00
2017-08-29T12:10:58.145Z,54.10
2017-08-29T12:13:24.187Z,53.70
2017-08-29T12:15:50.272Z,53.80
2017-08-29T12:18:16.312Z,52.40
2017-08-29T12:20:42.387Z,52.40
2017-08-29T12:23:08.422Z,52.60
2017-08-29T12:25:34.441Z,50.50
2017-08-29T12:28:00.476Z,50.10
2017-08-29T12:30:26.535Z,50.00
2017-08-29T12:32:52.551Z,50.70
2017-08-29T12:35:18.603Z,50.60
2017-08-29T12:37:44.636Z,50.50
2017-08-29T12:40:10.651Z,50.60
2017-08-29T12:42:36.669Z,49.50
2017-08-29T12:45:02.995Z,49.40
2017-08-29T12:47:29.052Z,49.80
2017-08-29T12:49:55.076Z,49.50
2017-08-29T12:52:21.113Z,49.20
2017-08-29T12:54:47.132Z,50.00
2017-08-29T12:57:13.160Z,49.20
2017-08-29T12:59:39.256Z,49.60
2017-08-29T13:02:05.286Z,50.00
2017-08-29T13:04:31.321Z,50.00
2017-08-29T13:06:57.404Z,50.50
2017-08-29T13:09:23.425Z,49.80
2017-08-29T13:11:49.469Z,49.60
2017-08-29T13:14:15.572Z,48.90
2017-08-29T13:16:41.593Z,49.80
2017-08-29T13:19:07.626Z,49.40
2017-08-29T13:21:33.741Z,49.70
2017-08-29T13:23:59.961Z,50.20
2017-08-29T13:26:26.410Z,50.20
2017-08-29T13:28:52.485Z,50.30
2017-08-29T13:31:18.604Z,50.20
2017-08-29T13:33:46.507Z,50.30
2017-08-29T13:36:12.557Z,50.00
2017-08-29T13:38:38.689Z,50.00
2017-08-29T13:41:04.717Z,51.00
2017-08-29T13:43:30.883Z,51.30
2017-08-29T13:45:56.925Z,52.30
2017-08-29T13:48:22.943Z,49.80
2017-08-29T13:50:49.027Z,50.10
2017-08-29T13:53:15.081Z,51.10
2017-08-29T13:55:41.086Z,51.50
2017-08-29T13:58:07.113Z,51.60
2017-08-29T14:00:33.566Z,51.70
2017-08-29T14:02:59.588Z,51.10
2017-08-29T14:05:25.613Z,51.80
2017-08-29T14:07:51.718Z,52.10
2017-08-29T14:10:17.793Z,52.20
2017-08-29T14:12:44.624Z,51.70
2017-08-29T14:15:11.145Z,51.70
2017-08-29T14:17:37.165Z,52.60
2017-08-29T14:20:03.221Z,51.70
2017-08-29T14:22:29.342Z,51.90
2017-08-29T14:24:55.378Z,52.00
2017-08-29T14:27:22.175Z,51.70
2017-08-29T14:29:48.245Z,51.70
2017-08-29T14:32:14.312Z,52.20
2017-08-29T14:34:40.318Z,52.50
2017-08-29T14:37:06.385Z,52.60
2017-08-29T14:39:32.761Z,52.70
2017-08-29T14:41:58.817Z,53.10
2017-08-29T14:44:24.826Z,53.20
2017-08-29T14:47:03.732Z,53.30
2017-08-29T14:49:29.755Z,53.20
2017-08-29T14:51:55.773Z,54.00
2017-08-29T14:54:21.800Z,54.70
2017-08-29T14:56:47.821Z,53.90
2017-08-29T14:59:13.836Z,53.90
2017-08-29T15:01:39.905Z,53.90
2017-08-29T15:04:05.925Z,53.10
2017-08-29T15:06:31.923Z,53.80
2017-08-29T15:08:57.964Z,53.60
2017-08-29T15:11:23.992Z,53.90
2017-08-29T15:13:49.997Z,54.20
2017-08-29T15:16:16.068Z,54.40
2017-08-29T15:18:42.077Z,55.00
2017-08-29T15:21:08.091Z,55.40
2017-08-29T15:23:34.191Z,55.20
2017-08-29T15:26:00.228Z,55.70
2017-08-29T15:28:26.244Z,55.40
2017-08-29T15:30:52.294Z,56.10
2017-08-29T15:33:18.296Z,56.80
2017-08-29T15:35:44.314Z,56.30
2017-08-29T15:38:10.692Z,56.20
2017-08-29T15:40:36.705Z,56.40
2017-08-29T15:43:02.722Z,56.60
2017-08-29T15:45:29.594Z,56.70
2017-08-29T15:47:55.635Z,57.20
2017-08-29T15:50:21.641Z,57.00
2017-08-29T15:52:47.722Z,57.30
2017-08-29T15:55:13.736Z,56.90
2017-08-29T15:57:39.756Z,56.60
2017-08-29T16:00:05.805Z,55.80
2017-08-29T16:02:31.813Z,55.80
2017-08-29T16:04:57.844Z,55.90
2017-08-29T16:07:24.129Z,56.00
2017-08-29T16:09:50.144Z,56.40
2017-08-29T16:12:16.778Z,56.50
2017-08-29T16:14:42.882Z,57.00
2017-08-29T16:17:08.944Z,56.60
2017-08-29T16:19:34.972Z,56.60
2017-08-29T16:22:01.036Z,56.50
2017-08-29T16:24:27.240Z,56.80
2017-08-29T16:26:53.456Z,57.20
2017-08-29T16:29:19.484Z,57.30
2017-08-29T16:31:45.588Z,58.60
2017-08-29T16:34:11.637Z,57.60
2017-08-29T16:36:38.138Z,57.60
2017-08-29T16:39:04.377Z,57.70
2017-08-29T16:41:30.419Z,58.30
2017-08-29T16:43:56.459Z,58.50
2017-08-29T16:46:22.865Z,58.60
2017-08-29T16:48:48.887Z,58.80
2017-08-29T16:51:14.919Z,59.60
2017-08-29T16:53:40.962Z,59.70
2017-08-29T16:56:06.985Z,59.40
2017-08-29T16:58:33.169Z,59.40
2017-08-29T17:00:59.204Z,59.70
2017-08-29T17:03:25.219Z,60.90
2017-08-29T17:05:51.456Z,61.20
2017-08-29T17:08:17.476Z,61.00
2017-08-29T17:10:43.517Z,62.50
2017-08-29T17:13:09.573Z,63.60
2017-08-29T17:15:35.585Z,63.80
2017-08-29T17:18:01.617Z,64.00
2017-08-29T17:20:27.981Z,63.50
2017-08-29T17:22:54.023Z,64.30
2017-08-29T17:25:20.057Z,65.00
2017-08-29T17:27:46.121Z,64.30
2017-08-29T17:30:12.153Z,65.10
2017-08-29T17:32:38.192Z,64.60
2017-08-29T17:35:04.522Z,64.70
2017-08-29T17:37:30.793Z,65.90
2017-08-29T17:39:56.805Z,66.10
2017-08-29T17:42:22.833Z,66.20
2017-08-29T17:44:48.913Z,66.20
2017-08-29T17:47:15.329Z,66.50
2017-08-29T17:49:41.334Z,67.10
2017-08-29T17:52:07.377Z,68.10
2017-08-29T17:54:33.402Z,67.30
2017-08-29T17:56:59.439Z,67.40
2017-08-29T17:59:25.485Z,67.40
2017-08-29T18:01:51.528Z,67.80
2017-08-29T18:04:17.550Z,68.00
2017-08-29T18:06:43.563Z,68.20
2017-08-29T18:09:09.643Z,68.90
2017-08-29T18:11:35.661Z,68.70
2017-08-29T18:14:01.685Z,68.90
2017-08-29T18:16:27.704Z,69.10
2017-08-29T18:18:53.765Z,69.20
2017-08-29T18:21:19.804Z,69.70
2017-08-29T18:23:45.830Z,70.30
2017-08-29T18:26:11.927Z,70.20
2017-08-29T18:28:37.935Z,70.70
2017-08-29T18:31:03.959Z,70.90
2017-08-29T18:33:30.255Z,70.90
2017-08-29T18:35:56.280Z,71.20
2017-08-29T18:38:22.296Z,71.30
2017-08-29T18:40:48.538Z,71.70
2017-08-29T18:43:14.583Z,71.80
2017-08-29T18:45:40.677Z,72.00
2017-08-29T18:48:06.734Z,72.10
2017-08-29T18:50:32.985Z,72.20
2017-08-29T18:52:59.078Z,72.30
2017-08-29T18:55:25.311Z,72.50
2017-08-29T18:57:51.346Z,72.60
2017-08-29T19:00:17.625Z,73.10
2017-08-29T19:02:43.646Z,73.00
2017-08-29T19:05:09.691Z,73.20
2017-08-29T19:07:36.097Z,73.50
2017-08-29T19:10:02.186Z,73.80
2017-08-29T19:12:28.277Z,73.70
2017-08-29T19:14:54.560Z,73.90
2017-08-29T19:17:20.771Z,74.10
2017-08-29T19:19:46.792Z,74.00
2017-08-29T19:22:12.879Z,74.30
2017-08-29T19:24:38.940Z,74.70
2017-08-29T19:27:05.023Z,74.90
2017-08-29T19:29:31.206Z,75.70
2017-08-29T19:31:57.221Z,75.20
2017-08-29T19:34:24.282Z,75.20
2017-08-29T19:36:50.689Z,75.60
2017-08-29T19:39:16.732Z,75.80
2017-08-29T19:41:42.753Z,76.00
2017-08-29T19:44:09.054Z,76.20
2017-08-29T19:46:35.070Z,76.40
2017-08-29T19:49:01.126Z,76.70
2017-08-29T19:51:27.215Z,76.70
2017-08-29T19:53:53.260Z,76.60
2017-08-29T19:56:19.294Z,76.60
2017-08-29T19:58:49.196Z,76.30
2017-08-29T20:01:15.322Z,76.10
2017-08-29T20:03:41.343Z,75.40
2017-08-29T20:06:07.437Z,75.60
2017-08-29T20:08:33.466Z,75.50
2017-08-29T20:10:59.511Z,75.30
2017-08-29T20:13:25.558Z,75.20
2017-08-29T20:15:51.573Z,74.80
2017-08-29T20:18:17.577Z,75.20
2017-08-29T20:20:43.664Z,74.90
2017-08-29T20:23:09.706Z,75.30
2017-08-29T20:25:35.727Z,75.40
2017-08-29T20:28:01.779Z,75.50
2017-08-29T20:30:27.800Z,76.10
2017-08-29T20:32:53.810Z,76.20
2017-08-29T20:35:20.133Z,77.40
2017-08-29T20:37:46.156Z,77.80
2017-08-29T20:40:12.196Z,77.80
2017-08-29T20:42:38.299Z,77.90
2017-08-29T20:45:04.381Z,78.10
2017-08-29T20:47:30.409Z,78.20
2017-08-29T20:49:56.445Z,78.40
2017-08-29T20:52:22.492Z,78.20
2017-08-29T20:54:48.547Z,78.40
2017-08-29T20:57:14.578Z,78.70
2017-08-29T20:59:40.617Z,78.80
2017-08-29T21:02:06.708Z,78.80
2017-08-29T21:04:32.761Z,79.20
2017-08-29T21:06:58.829Z,79.40
2017-08-29T21:09:24.864Z,79.20
2017-08-29T21:11:50.920Z,79.00
2017-08-29T21:14:16.954Z,79.10
2017-08-29T21:16:43.007Z,78.60
2017-08-29T21:19:09.001Z,78.60
2017-08-29T21:21:35.034Z,78.30
2017-08-29T21:24:01.060Z,78.20
2017-08-29T21:26:27.074Z,78.20
2017-08-29T21:28:53.102Z,78.40
2017-08-29T21:31:19.186Z,78.70
2017-08-29T21:33:45.205Z,78.90
2017-08-29T21:36:11.223Z,78.80
2017-08-29T21:38:37.268Z,79.20
2017-08-29T21:41:03.278Z,79.10
2017-08-29T21:43:29.313Z,79.20
2017-08-29T21:45:55.371Z,79.40
2017-08-29T21:48:21.429Z,79.30
2017-08-29T21:50:47.528Z,79.70
2017-08-29T21:53:13.553Z,80.30
2017-08-29T21:55:39.553Z,80.60
2017-08-29T21:58:05.555Z,80.70
2017-08-29T22:00:31.653Z,81.10
2017-08-29T22:02:57.734Z,81.40
2017-08-29T22:05:23.773Z,81.70
2017-08-29T22:10:23.075Z,82.00
2017-08-29T22:12:49.350Z,82.40
2017-08-29T22:15:15.437Z,82.10
2017-08-29T22:17:41.557Z,81.90
2017-08-29T22:20:08.088Z,82.20
2017-08-29T22:22:34.257Z,81.90
2017-08-29T22:25:00.426Z,81.90
2017-08-29T22:27:26.532Z,81.90
2017-08-29T22:29:52.786Z,81.90
2017-08-29T22:32:18.915Z,82.10
2017-08-29T22:34:45.197Z,81.90
2017-08-29T22:37:11.418Z,82.00
2017-08-29T22:39:37.579Z,81.90
2017-08-29T22:42:03.628Z,81.80
2017-08-29T22:44:29.660Z,81.90
2017-08-29T22:46:55.696Z,82.20
2017-08-29T22:49:22.043Z,82.30
2017-08-29T22:51:48.048Z,82.40
2017-08-29T22:54:14.068Z,82.80
2017-08-29T22:56:40.108Z,82.80
2017-08-29T22:59:06.140Z,83.50
2017-08-29T23:01:32.162Z,83.40
2017-08-29T23:03:58.364Z,83.50
2017-08-29T23:06:24.409Z,83.30
2017-08-29T23:08:50.443Z,83.20
2017-08-29T23:11:16.842Z,83.20
2017-08-29T23:13:42.853Z,83.20
2017-08-29T23:16:08.888Z,83.20
2017-08-29T23:18:34.904Z,83.10
2017-08-29T23:21:00.931Z,83.00
2017-08-29T23:23:26.947Z,82.90
2017-08-29T23:25:53.409Z,82.90
2017-08-29T23:28:19.441Z,82.70
2017-08-29T23:30:45.452Z,83.00
2017-08-29T23:33:11.473Z,83.50
2017-08-29T23:35:37.506Z,83.50
2017-08-29T23:38:03.514Z,83.50
2017-08-29T23:40:29.530Z,83.70
2017-08-29T23:42:55.540Z,83.50
2017-08-29T23:45:21.631Z,83.40
2017-08-29T23:47:47.662Z,83.30
2017-08-29T23:50:13.706Z,83.70
2017-08-29T23:52:39.759Z,83.90
2017-08-29T23:55:05.841Z,84.20
2017-08-29T23:57:31.873Z,84.20
2017-08-29T23:59:57.908Z,84.20
